Terminal Aerodrome Forecast
Issued by NWS

Home | Current Version | Previous Version | Text Only | Print | Product List | Glossary On
Versions: 1 2 3 4 5 6 7 8 9 10 11 12
080
FTUS45 KABQ 260522
TAFGUP
TAF
KGUP 260522Z 2606/2706 21006KT P6SM FEW120
     FM261500 23012G22KT P6SM SCT120
     FM262000 26018G28KT P6SM SCT070 BKN120=

USA.gov is the U.S. government's official web portal to all federal, state and local government web resources and services.